KOOA/OOA METAR and TAF weather

Enter ICAO airport designator
Station Type Date Time Source
KOOA METAR 2019/06/18 15:15 UTC NOAA

KOOA 181515Z AUTO 00000KT 10SM SCT014 22/17 A2998 RMK AO2 T02190168


Station Type Date Time Source
KOOA Decoded METAR 2019/06/18 15:15 UTC NOAA

Oskaloosa, Oskaloosa Municipal Airport, IA, United States (KOOA) 41-13-34N 092-29-37W
Jun 18, 2019 - 11:15 AM EDT / 2019.06.18 1515 UTC
Wind: Calm:0
Visibility: 10 mile(s):0
Sky conditions: partly cloudy
Temperature: 71.4 F (21.9 C)
Dew Point: 62.2 F (16.8 C)
Relative Humidity: 72%
Pressure (altimeter): 29.98 in. Hg (1015 hPa)
ob: KOOA 181515Z AUTO 00000KT 10SM SCT014 22/17 A2998 RMK AO2 T02190168
cycle: 15

Station Type Date Time Source
KOOA TAF UTC NOAA

Error!

Example: see airport list